PST: 09:03 MST: 10:03 CST: 11:03 EST: 12:03 LDN: 17:03 UTC: 16:03
User Agent: CCBot/2.0 (http://commoncrawl.org/faq/)
IP Address: 54.80.132.10
Hostname: ec2-54-80-132-10.compute-1.amazonaws.com

METAR:
KBFI 191553Z 15009KT 7SM -RA FEW020 OVC070 12/11 A2957 RMK AO2 SLP014 P0002 T01170106 $
KBFI 191453Z 18007KT 5SM -RA BR SCT034 OVC050 11/11 A2958 RMK AO2 SLP015 P0001 60006 T01110106 58010 $
KBFI 191353Z 17009KT 10SM -RA FEW030 OVC060 12/10 A2959 RMK AO2 RAB1254 SLP021 P0002 T01170100 $
KBFI 191253Z COR 17008KT 10SM -RA FEW042 OVC060 12/11 A2961 RMK AO2 RAE45 SLP028 P0003 T01170106 $

TAF:
KBFI 191454Z 1915/2012 17009KT P6SM -RA FEW008 BKN026 OVC035 TEMPO 1915/1919 SCT030 BKN060
FM 191900 19010KT P6SM -SHRA BKN025 OVC070

KBFI 191120Z 1912/2012 16012KT P6SM -RA SCT025 OVC070
FM 191400 16010KT P6SM SCT030 OVC080
FM 191800 19010KT P6SM -SHRA BKN025 OVC070

KBFI 190520Z 1906/2006 20008KT P6SM -RA SCT010 OVC070 TEMPO 1906/1909 4SM RA BR BKN010 OVC025
FM 191200 18008KT P6SM BKN020 OVC040
FM 191800 19010KT P6SM -SHRA OVC025

KBFI 190208Z 1902/1924 19012KT 5SM -RA BR SCT020 OVC040 TEMPO 1902/1905 3SM -RA BR BKN020 OVC040
FM 190500 19012KT 6SM -RA BR BKN020 OVC025
FM 190900 18010KT P6SM -RA SCT020 OVC025
FM 191400 18008KT P6SM VCSH BKN025 OVC040
FM 191800 19010KT P6SM VCSH SCT030 BKN040

KBFI 182329Z 1900/1924 18020G30KT P6SM -RA SCT020 BKN030 OVC060
FM 190300 19012G22KT 6SM RA BR BKN020 OVC025
FM 190900 18010KT P6SM -RA SCT020 OVC025
FM 191400 18008KT P6SM VCSH BKN025 OVC040
FM 191800 19010KT P6SM VCSH SCT030 BKN040

KBFI 181732Z 1818/1918 16013G20KT P6SM -RA BKN040 OVC050
FM 182100 18020G30KT P6SM -RA BKN025 OVC035
FM 190300 19012G22KT 4SM RA BR BKN015 OVC020
FM 190900 18010KT 4SM -RA BKN015 OVC020
FM 191400 18008KT P6SM -RA BKN020 OVC040